sensor_id;sensor_type;location;lat;lon;timestamp;temperature;humidity
19435;DHT22;9853;50.848;4.108;2023-03-01T17:35:42;5.70;99.90
19435;DHT22;9853;50.848;4.108;2023-03-01T17:37:45;5.60;99.90
19435;DHT22;9853;50.848;4.108;2023-03-01T17:39:46;5.60;99.90
19435;DHT22;9853;50.848;4.108;2023-03-01T17:41:47;5.60;99.90
19435;DHT22;9853;50.848;4.108;2023-03-01T17:43:48;5.60;99.90
19435;DHT22;9853;50.848;4.108;2023-03-01T17:45:49;5.60;99.90
19435;DHT22;9853;50.848;4.108;2023-03-01T17:47:51;5.60;99.90
19435;DHT22;9853;50.848;4.108;2023-03-01T17:49:52;5.60;99.90
19435;DHT22;9853;50.848;4.108;2023-03-01T17:51:54;5.60;99.90
19435;DHT22;9853;50.848;4.108;2023-03-01T17:53:55;5.60;99.90
19435;DHT22;9853;50.848;4.108;2023-03-01T17:56:01;5.50;99.90
19435;DHT22;9853;50.848;4.108;2023-03-01T17:58:03;5.40;99.90
19435;DHT22;9853;50.848;4.108;2023-03-01T18:00:05;5.40;99.90
19435;DHT22;9853;50.848;4.108;2023-03-01T18:02:12;5.40;99.90
19435;DHT22;9853;50.848;4.108;2023-03-01T18:04:13;5.30;99.90
19435;DHT22;9853;50.848;4.108;2023-03-01T18:06:21;5.30;99.90
19435;DHT22;9853;50.848;4.108;2023-03-01T18:08:22;5.30;99.90
19435;DHT22;9853;50.848;4.108;2023-03-01T18:10:23;5.30;99.90
19435;DHT22;9853;50.848;4.108;2023-03-01T18:12:24;5.30;99.90
19435;DHT22;9853;50.848;4.108;2023-03-01T18:14:25;5.20;99.90
19435;DHT22;9853;50.848;4.108;2023-03-01T18:16:29;5.20;99.90
19435;DHT22;9853;50.848;4.108;2023-03-01T18:18:30;5.10;99.90
19435;DHT22;9853;50.848;4.108;2023-03-01T18:20:31;5.00;99.90
19435;DHT22;9853;50.848;4.108;2023-03-01T18:22:33;5.00;99.90
19435;DHT22;9853;50.848;4.108;2023-03-01T18:24:36;4.90;99.90
19435;DHT22;9853;50.848;4.108;2023-03-01T18:26:37;4.90;99.90
19435;DHT22;9853;50.848;4.108;2023-03-01T18:28:38;4.90;99.90
19435;DHT22;9853;50.848;4.108;2023-03-01T18:30:39;4.80;99.90
19435;DHT22;9853;50.848;4.108;2023-03-01T18:32:40;4.80;99.90
19435;DHT22;9853;50.848;4.108;2023-03-01T18:34:41;4.80;99.90
19435;DHT22;9853;50.848;4.108;2023-03-01T18:36:42;4.70;99.90
19435;DHT22;9853;50.848;4.108;2023-03-01T18:38:42;4.70;99.90
19435;DHT22;9853;50.848;4.108;2023-03-01T18:40:46;4.60;99.90
19435;DHT22;9853;50.848;4.108;2023-03-01T18:42:47;4.60;99.90
19435;DHT22;9853;50.848;4.108;2023-03-01T18:44:48;4.60;99.90
19435;DHT22;9853;50.848;4.108;2023-03-01T18:46:49;4.60;99.90
19435;DHT22;9853;50.848;4.108;2023-03-01T18:48:51;4.50;99.90
19435;DHT22;9853;50.848;4.108;2023-03-01T18:50:54;4.40;99.90
19435;DHT22;9853;50.848;4.108;2023-03-01T18:52:57;4.40;99.90
19435;DHT22;9853;50.848;4.108;2023-03-01T18:54:58;4.40;99.90
19435;DHT22;9853;50.848;4.108;2023-03-01T18:56:58;4.40;99.90
19435;DHT22;9853;50.848;4.108;2023-03-01T18:58:59;4.40;99.90
19435;DHT22;9853;50.848;4.108;2023-03-01T19:01:00;4.40;99.90
19435;DHT22;9853;50.848;4.108;2023-03-01T19:03:03;4.40;99.90
19435;DHT22;9853;50.848;4.108;2023-03-01T19:05:05;4.40;99.90
19435;DHT22;9853;50.848;4.108;2023-03-01T19:07:05;4.40;99.90
19435;DHT22;9853;50.848;4.108;2023-03-01T19:09:07;4.40;99.90
19435;DHT22;9853;50.848;4.108;2023-03-01T19:11:09;4.50;99.90
19435;DHT22;9853;50.848;4.108;2023-03-01T19:13:10;4.50;99.90
19435;DHT22;9853;50.848;4.108;2023-03-01T19:15:11;4.50;99.90
19435;DHT22;9853;50.848;4.108;2023-03-01T19:17:13;4.60;99.90
19435;DHT22;9853;50.848;4.108;2023-03-01T19:19:13;4.60;99.90
19435;DHT22;9853;50.848;4.108;2023-03-01T19:21:20;4.70;99.90
19435;DHT22;9853;50.848;4.108;2023-03-01T19:23:21;4.70;99.90
19435;DHT22;9853;50.848;4.108;2023-03-01T19:25:22;4.70;99.90
19435;DHT22;9853;50.848;4.108;2023-03-01T19:27:22;4.70;99.90
19435;DHT22;9853;50.848;4.108;2023-03-01T19:29:23;4.60;99.90
19435;DHT22;9853;50.848;4.108;2023-03-01T19:31:26;4.70;99.90
19435;DHT22;9853;50.848;4.108;2023-03-01T19:33:29;4.70;99.90
19435;DHT22;9853;50.848;4.108;2023-03-01T19:35:33;4.60;99.90
19435;DHT22;9853;50.848;4.108;2023-03-01T19:37:34;4.50;99.90
19435;DHT22;9853;50.848;4.108;2023-03-01T19:39:35;4.50;99.90
19435;DHT22;9853;50.848;4.108;2023-03-01T19:41:36;4.50;99.90
19435;DHT22;9853;50.848;4.108;2023-03-01T19:43:37;4.40;99.90
19435;DHT22;9853;50.848;4.108;2023-03-01T19:45:38;4.40;99.90
19435;DHT22;9853;50.848;4.108;2023-03-01T19:47:38;4.30;99.90
19435;DHT22;9853;50.848;4.108;2023-03-01T19:49:39;4.30;99.90
19435;DHT22;9853;50.848;4.108;2023-03-01T19:51:41;4.30;99.90
19435;DHT22;9853;50.848;4.108;2023-03-01T19:53:42;4.20;99.90
19435;DHT22;9853;50.848;4.108;2023-03-01T19:55:43;4.20;99.90
19435;DHT22;9853;50.848;4.108;2023-03-01T19:57:44;4.20;99.90
19435;DHT22;9853;50.848;4.108;2023-03-01T19:59:44;4.10;99.90
19435;DHT22;9853;50.848;4.108;2023-03-01T20:01:45;4.10;99.90
19435;DHT22;9853;50.848;4.108;2023-03-01T20:03:46;4.10;99.90
19435;DHT22;9853;50.848;4.108;2023-03-01T20:05:47;4.10;99.90
19435;DHT22;9853;50.848;4.108;2023-03-01T20:07:48;4.10;99.90
19435;DHT22;9853;50.848;4.108;2023-03-01T20:09:50;4.10;99.90
19435;DHT22;9853;50.848;4.108;2023-03-01T20:11:51;4.20;99.90
19435;DHT22;9853;50.848;4.108;2023-03-01T20:13:52;4.20;99.90
19435;DHT22;9853;50.848;4.108;2023-03-01T20:15:54;4.20;99.90
19435;DHT22;9853;50.848;4.108;2023-03-01T20:17:55;4.20;99.90
19435;DHT22;9853;50.848;4.108;2023-03-01T20:19:56;4.30;99.90
19435;DHT22;9853;50.848;4.108;2023-03-01T20:21:57;4.20;99.90
19435;DHT22;9853;50.848;4.108;2023-03-01T20:23:58;4.20;99.90
19435;DHT22;9853;50.848;4.108;2023-03-01T20:26:07;4.30;99.90
19435;DHT22;9853;50.848;4.108;2023-03-01T20:28:29;4.20;99.90
19435;DHT22;9853;50.848;4.108;2023-03-01T20:30:30;4.20;99.90
19435;DHT22;9853;50.848;4.108;2023-03-01T20:32:31;4.10;99.90
19435;DHT22;9853;50.848;4.108;2023-03-01T20:34:32;4.00;99.90
19435;DHT22;9853;50.848;4.108;2023-03-01T20:36:35;3.90;99.90
19435;DHT22;9853;50.848;4.108;2023-03-01T20:38:38;3.80;99.90
19435;DHT22;9853;50.848;4.108;2023-03-01T20:40:39;3.70;99.90
19435;DHT22;9853;50.848;4.108;2023-03-01T20:42:40;3.70;99.90
19435;DHT22;9853;50.848;4.108;2023-03-01T20:44:40;3.70;99.90
19435;DHT22;9853;50.848;4.108;2023-03-01T20:46:43;3.70;99.90
19435;DHT22;9853;50.848;4.108;2023-03-01T20:48:44;3.70;99.90
19435;DHT22;9853;50.848;4.108;2023-03-01T20:50:45;3.70;99.90
19435;DHT22;9853;50.848;4.108;2023-03-01T20:52:46;3.60;99.90
19435;DHT22;9853;50.848;4.108;2023-03-01T20:54:47;3.50;99.90
19435;DHT22;9853;50.848;4.108;2023-03-01T20:56:48;3.50;99.90
19435;DHT22;9853;50.848;4.108;2023-03-01T20:58:48;3.60;99.90
19435;DHT22;9853;50.848;4.108;2023-03-01T21:00:50;3.70;99.90
19435;DHT22;9853;50.848;4.108;2023-03-01T21:02:52;3.70;99.90
19435;DHT22;9853;50.848;4.108;2023-03-01T21:04:53;3.70;99.90
19435;DHT22;9853;50.848;4.108;2023-03-01T21:06:55;3.60;99.90
19435;DHT22;9853;50.848;4.108;2023-03-01T21:08:56;3.60;99.90
19435;DHT22;9853;50.848;4.108;2023-03-01T21:10:57;3.60;99.90
19435;DHT22;9853;50.848;4.108;2023-03-01T21:12:58;3.60;99.90
19435;DHT22;9853;50.848;4.108;2023-03-01T21:15:05;3.50;99.90
19435;DHT22;9853;50.848;4.108;2023-03-01T21:17:10;3.50;99.90
19435;DHT22;9853;50.848;4.108;2023-03-01T21:19:11;3.60;99.90
19435;DHT22;9853;50.848;4.108;2023-03-01T21:21:15;3.50;99.90
19435;DHT22;9853;50.848;4.108;2023-03-01T21:23:16;3.50;99.90
19435;DHT22;9853;50.848;4.108;2023-03-01T21:25:18;3.50;99.90
19435;DHT22;9853;50.848;4.108;2023-03-01T21:27:19;3.60;99.90
19435;DHT22;9853;50.848;4.108;2023-03-01T21:29:20;3.60;99.90
19435;DHT22;9853;50.848;4.108;2023-03-01T21:31:23;3.50;99.90
19435;DHT22;9853;50.848;4.108;2023-03-01T21:33:24;3.50;99.90
19435;DHT22;9853;50.848;4.108;2023-03-01T21:35:25;3.50;99.90
19435;DHT22;9853;50.848;4.108;2023-03-01T21:37:26;3.50;99.90
19435;DHT22;9853;50.848;4.108;2023-03-01T21:39:29;3.50;99.90
19435;DHT22;9853;50.848;4.108;2023-03-01T21:41:32;3.50;99.90
19435;DHT22;9853;50.848;4.108;2023-03-01T21:43:34;3.50;99.90
19435;DHT22;9853;50.848;4.108;2023-03-01T21:45:35;3.50;99.90
19435;DHT22;9853;50.848;4.108;2023-03-01T21:47:35;3.50;99.90
19435;DHT22;9853;50.848;4.108;2023-03-01T21:49:37;3.50;99.90
19435;DHT22;9853;50.848;4.108;2023-03-01T21:51:38;3.50;99.90
19435;DHT22;9853;50.848;4.108;2023-03-01T21:53:39;3.50;99.90
19435;DHT22;9853;50.848;4.108;2023-03-01T21:55:46;3.50;99.90
19435;DHT22;9853;50.848;4.108;2023-03-01T21:57:47;3.50;99.90
19435;DHT22;9853;50.848;4.108;2023-03-01T21:59:47;3.60;99.90
19435;DHT22;9853;50.848;4.108;2023-03-01T22:01:50;3.70;99.90
19435;DHT22;9853;50.848;4.108;2023-03-01T22:03:51;3.70;99.90
19435;DHT22;9853;50.848;4.108;2023-03-01T22:05:59;3.70;99.90
19435;DHT22;9853;50.848;4.108;2023-03-01T22:08:01;3.70;99.90
19435;DHT22;9853;50.848;4.108;2023-03-01T22:10:02;3.80;99.90
19435;DHT22;9853;50.848;4.108;2023-03-01T22:12:03;3.70;99.90
19435;DHT22;9853;50.848;4.108;2023-03-01T22:14:06;3.70;99.90
19435;DHT22;9853;50.848;4.108;2023-03-01T22:16:07;3.70;99.90
19435;DHT22;9853;50.848;4.108;2023-03-01T22:18:09;3.60;99.90
19435;DHT22;9853;50.848;4.108;2023-03-01T22:20:10;3.60;99.90
19435;DHT22;9853;50.848;4.108;2023-03-01T22:22:11;3.60;99.90
19435;DHT22;9853;50.848;4.108;2023-03-01T22:24:12;3.50;99.90
19435;DHT22;9853;50.848;4.108;2023-03-01T22:26:46;3.50;99.90
19435;DHT22;9853;50.848;4.108;2023-03-01T22:28:48;3.50;99.90
19435;DHT22;9853;50.848;4.108;2023-03-01T22:30:49;3.50;99.90
19435;DHT22;9853;50.848;4.108;2023-03-01T22:32:49;3.40;99.90
19435;DHT22;9853;50.848;4.108;2023-03-01T22:34:50;3.40;99.90
19435;DHT22;9853;50.848;4.108;2023-03-01T22:36:51;3.30;99.90
19435;DHT22;9853;50.848;4.108;2023-03-01T22:38:52;3.30;99.90
19435;DHT22;9853;50.848;4.108;2023-03-01T22:41:01;3.30;99.90
19435;DHT22;9853;50.848;4.108;2023-03-01T22:43:02;3.30;99.90
19435;DHT22;9853;50.848;4.108;2023-03-01T22:45:03;3.40;99.90
19435;DHT22;9853;50.848;4.108;2023-03-01T22:47:04;3.50;99.90
19435;DHT22;9853;50.848;4.108;2023-03-01T22:49:05;3.70;99.90
19435;DHT22;9853;50.848;4.108;2023-03-01T22:51:06;3.70;99.90
19435;DHT22;9853;50.848;4.108;2023-03-01T22:53:07;3.80;99.90
19435;DHT22;9853;50.848;4.108;2023-03-01T22:55:08;3.70;99.90
19435;DHT22;9853;50.848;4.108;2023-03-01T22:57:09;3.60;99.90
19435;DHT22;9853;50.848;4.108;2023-03-01T22:59:12;3.50;99.90
19435;DHT22;9853;50.848;4.108;2023-03-01T23:01:18;3.50;99.90
19435;DHT22;9853;50.848;4.108;2023-03-01T23:03:19;3.50;99.90
19435;DHT22;9853;50.848;4.108;2023-03-01T23:05:20;3.50;99.90
19435;DHT22;9853;50.848;4.108;2023-03-01T23:07:20;3.50;99.90
19435;DHT22;9853;50.848;4.108;2023-03-01T23:09:32;3.40;99.90
19435;DHT22;9853;50.848;4.108;2023-03-01T23:11:33;3.40;99.90
19435;DHT22;9853;50.848;4.108;2023-03-01T23:13:34;3.50;99.90
19435;DHT22;9853;50.848;4.108;2023-03-01T23:15:35;3.50;99.90
19435;DHT22;9853;50.848;4.108;2023-03-01T23:17:36;3.40;99.90
19435;DHT22;9853;50.848;4.108;2023-03-01T23:19:36;3.40;99.90
19435;DHT22;9853;50.848;4.108;2023-03-01T23:21:38;3.40;99.90
19435;DHT22;9853;50.848;4.108;2023-03-01T23:23:44;3.40;99.90
19435;DHT22;9853;50.848;4.108;2023-03-01T23:25:56;3.30;99.90
19435;DHT22;9853;50.848;4.108;2023-03-01T23:27:57;3.40;99.90
19435;DHT22;9853;50.848;4.108;2023-03-01T23:29:58;3.40;99.90
19435;DHT22;9853;50.848;4.108;2023-03-01T23:31:59;3.10;99.90
19435;DHT22;9853;50.848;4.108;2023-03-01T23:34:00;3.00;99.90
19435;DHT22;9853;50.848;4.108;2023-03-01T23:36:01;3.20;99.90
19435;DHT22;9853;50.848;4.108;2023-03-01T23:38:02;3.30;99.90
19435;DHT22;9853;50.848;4.108;2023-03-01T23:40:04;3.30;99.90
19435;DHT22;9853;50.848;4.108;2023-03-01T23:42:06;3.20;99.90
19435;DHT22;9853;50.848;4.108;2023-03-01T23:44:10;3.30;99.90
19435;DHT22;9853;50.848;4.108;2023-03-01T23:46:13;3.20;99.90
19435;DHT22;9853;50.848;4.108;2023-03-01T23:48:14;3.20;99.90
19435;DHT22;9853;50.848;4.108;2023-03-01T23:50:17;3.30;99.90
19435;DHT22;9853;50.848;4.108;2023-03-01T23:52:19;3.30;99.90
19435;DHT22;9853;50.848;4.108;2023-03-01T23:54:23;3.30;99.90
19435;DHT22;9853;50.848;4.108;2023-03-01T23:56:36;3.20;99.90
19435;DHT22;9853;50.848;4.108;2023-03-01T23:58:37;3.10;99.90
